Time;durP1;ratioP1;P1;durP2;ratioP2;P2;SDS_P1;SDS_P2;PMS_P1;PMS_P2;Temp;Humidity;BMP_temperature;BMP_pressure;BME280_temperature;BME280_humidity;BME280_pressure;Samples;Min_cycle;Max_cycle;Signal;HPM_P1;HPM_P2
2023/05/02 00:00:21;;;;;;;2.80;2.70;;;10.60;99.90;;;;;;4934554;29;20212;-55
2023/05/02 00:02:48;;;;;;;3.10;3.00;;;10.50;99.90;;;;;;4934135;29;20215;-55
2023/05/02 00:05:15;;;;;;;3.33;3.13;;;10.40;99.90;;;;;;4930666;29;20203;-55
2023/05/02 00:07:44;;;;;;;4.03;3.70;;;10.40;99.90;;;;;;4933174;29;20204;-55
2023/05/02 00:10:11;;;;;;;3.77;3.57;;;10.40;99.90;;;;;;4932227;29;20228;-55
2023/05/02 00:12:38;;;;;;;4.00;3.77;;;10.40;99.90;;;;;;4934161;29;20271;-55
2023/05/02 00:15:06;;;;;;;4.30;3.90;;;10.40;99.90;;;;;;4933536;29;20243;-56
2023/05/02 00:17:33;;;;;;;3.90;3.50;;;10.30;99.90;;;;;;4930113;29;20204;-55
2023/05/02 00:20:00;;;;;;;4.97;4.33;;;10.30;99.90;;;;;;4924024;29;20610;-56
2023/05/02 00:22:28;;;;;;;4.20;4.00;;;10.40;99.90;;;;;;4923873;29;20211;-55
2023/05/02 00:24:58;;;;;;;3.97;3.77;;;10.30;99.90;;;;;;4923171;29;20231;-55
2023/05/02 00:27:28;;;;;;;4.50;4.20;;;10.40;99.90;;;;;;4925719;29;20271;-56
2023/05/02 00:29:55;;;;;;;4.97;4.60;;;10.30;99.90;;;;;;4927965;29;20442;-54
2023/05/02 00:32:22;;;;;;;4.77;4.47;;;10.30;99.90;;;;;;4937416;29;20207;-55
2023/05/02 00:34:49;;;;;;;5.03;4.73;;;10.30;99.90;;;;;;4929714;29;20220;-55
2023/05/02 00:37:16;;;;;;;5.10;4.80;;;10.30;99.90;;;;;;4942814;29;20307;-55
2023/05/02 00:39:43;;;;;;;5.83;5.33;;;10.30;99.90;;;;;;4941234;29;20214;-55
2023/05/02 00:42:12;;;;;;;5.67;5.27;;;10.30;99.90;;;;;;4935929;29;20709;-55
2023/05/02 00:44:57;;;;;;;4.90;4.50;;;10.20;99.90;;;;;;4941439;29;20230;-55
2023/05/02 00:47:24;;;;;;;4.87;4.57;;;10.20;99.90;;;;;;4942661;29;20240;-55
2023/05/02 00:49:51;;;;;;;5.77;5.20;;;10.20;99.90;;;;;;4927311;29;20284;-55
2023/05/02 00:52:19;;;;;;;4.03;3.80;;;10.20;99.90;;;;;;4915125;29;20213;-55
2023/05/02 00:54:47;;;;;;;4.77;4.40;;;10.20;99.90;;;;;;4914757;29;20289;-55
2023/05/02 00:57:16;;;;;;;4.93;4.53;;;10.20;99.90;;;;;;4923343;29;20268;-55
2023/05/02 00:59:43;;;;;;;4.57;4.27;;;10.20;99.90;;;;;;4931619;29;20207;-55
2023/05/02 01:02:28;;;;;;;3.83;3.63;;;10.20;99.90;;;;;;4933978;29;20456;-55
2023/05/02 01:05:05;;;;;;;3.47;3.17;;;10.20;99.90;;;;;;4933972;29;20276;-55
2023/05/02 01:07:59;;;;;;;4.93;3.33;;;10.30;99.90;;;;;;4920302;29;20273;-55
2023/05/02 01:10:37;;;;;;;3.27;3.13;;;10.20;99.90;;;;;;4922797;29;20238;-55
2023/05/02 01:13:10;;;;;;;3.27;3.13;;;10.20;99.90;;;;;;4930267;29;21086;-55
2023/05/02 01:15:39;;;;;;;3.77;3.57;;;10.20;99.90;;;;;;4933597;29;20649;-55
2023/05/02 01:18:09;;;;;;;4.00;3.70;;;10.20;99.90;;;;;;4936954;29;20574;-55
2023/05/02 01:20:40;;;;;;;4.30;3.90;;;10.20;99.90;;;;;;4937377;29;20213;-55
2023/05/02 01:23:16;;;;;;;3.93;3.57;;;10.30;99.90;;;;;;4931602;29;20237;-55
2023/05/02 01:25:55;;;;;;;4.07;3.77;;;10.30;99.90;;;;;;4934994;29;20221;-55
2023/05/02 01:28:36;;;;;;;4.10;3.70;;;10.30;99.90;;;;;;4936800;29;20747;-55
2023/05/02 01:31:06;;;;;;;4.63;4.33;;;10.20;99.90;;;;;;4937065;29;20227;-55
2023/05/02 01:33:36;;;;;;;3.70;3.50;;;10.20;99.90;;;;;;4935896;29;20784;-55
2023/05/02 01:36:04;;;;;;;4.67;4.30;;;10.30;99.90;;;;;;4929857;29;20208;-55
2023/05/02 01:38:33;;;;;;;3.47;3.27;;;10.20;99.90;;;;;;4933501;29;20296;-55
2023/05/02 01:41:02;;;;;;;4.13;3.93;;;10.30;99.90;;;;;;4928111;29;20256;-55
2023/05/02 01:43:32;;;;;;;3.93;3.70;;;10.20;99.90;;;;;;4921695;29;20243;-55
2023/05/02 01:46:03;;;;;;;4.87;4.43;;;10.30;99.90;;;;;;4933395;29;20400;-55
2023/05/02 01:48:32;;;;;;;3.90;3.70;;;10.30;99.90;;;;;;4933190;29;20205;-55
2023/05/02 01:51:00;;;;;;;4.60;4.30;;;10.30;99.90;;;;;;4936753;29;20220;-55
2023/05/02 01:53:30;;;;;;;4.43;4.23;;;10.30;99.90;;;;;;4936511;29;20236;-55
2023/05/02 01:55:59;;;;;;;3.70;3.50;;;10.30;99.90;;;;;;4934442;29;20653;-55
2023/05/02 01:58:28;;;;;;;5.33;4.70;;;10.20;99.90;;;;;;4927075;29;20208;-55
2023/05/02 02:00:58;;;;;;;3.17;3.03;;;10.30;99.90;;;;;;4933732;29;20257;-55
2023/05/02 02:03:26;;;;;;;4.17;3.87;;;10.30;99.90;;;;;;4936133;29;20228;-55
2023/05/02 02:05:56;;;;;;;3.67;3.13;;;10.20;99.90;;;;;;4936256;29;20283;-55
2023/05/02 02:08:24;;;;;;;3.40;3.10;;;10.20;99.90;;;;;;4927755;29;20217;-55
2023/05/02 02:11:00;;;;;;;2.50;2.40;;;10.20;99.90;;;;;;4936066;29;20224;-55
2023/05/02 02:13:36;;;;;;;2.57;2.37;;;10.20;99.90;;;;;;4931857;29;20307;-55
2023/05/02 02:16:06;;;;;;;2.03;2.03;;;10.20;99.90;;;;;;4934178;29;20256;-55
2023/05/02 02:18:37;;;;;;;2.17;2.10;;;10.30;99.90;;;;;;4936631;29;20206;-55
2023/05/02 02:21:09;;;;;;;4.43;2.33;;;10.30;99.90;;;;;;4936231;29;20283;-56
2023/05/02 02:23:38;;;;;;;1.97;1.97;;;10.30;99.90;;;;;;4935842;29;20727;-55
2023/05/02 02:26:06;;;;;;;2.23;2.13;;;10.30;99.90;;;;;;4931012;29;20198;-55
2023/05/02 02:28:34;;;;;;;2.20;2.10;;;10.30;99.90;;;;;;4935157;29;20286;-56
2023/05/02 02:31:01;;;;;;;2.23;2.20;;;10.30;99.90;;;;;;4927113;29;20222;-55
2023/05/02 02:33:31;;;;;;;2.10;2.10;;;10.30;99.90;;;;;;4935353;29;20227;-55
2023/05/02 02:36:12;;;;;;;2.47;2.27;;;10.20;99.90;;;;;;4935768;29;20258;-55
2023/05/02 02:38:46;;;;;;;2.63;2.50;;;10.20;99.90;;;;;;4929370;29;20652;-55
2023/05/02 02:41:19;;;;;;;1.87;1.87;;;10.20;99.90;;;;;;4935555;29;20200;-55
2023/05/02 02:44:00;;;;;;;1.53;1.50;;;10.20;99.90;;;;;;4934593;29;20726;-55
2023/05/02 02:46:34;;;;;;;2.30;2.10;;;10.20;99.90;;;;;;4928761;29;20659;-55
2023/05/02 02:49:15;;;;;;;1.83;1.83;;;10.20;99.90;;;;;;4935521;29;20630;-55
2023/05/02 02:51:55;;;;;;;2.00;1.90;;;10.20;99.90;;;;;;4923395;29;20220;-54
2023/05/02 02:54:26;;;;;;;1.70;1.67;;;10.20;99.90;;;;;;4926747;29;20235;-55
2023/05/02 02:57:01;;;;;;;2.37;2.27;;;10.20;99.90;;;;;;4931124;29;20204;-55
2023/05/02 02:59:31;;;;;;;2.03;2.03;;;10.20;99.90;;;;;;4935402;29;20199;-55
2023/05/02 03:02:05;;;;;;;2.40;2.30;;;10.10;99.90;;;;;;4935274;29;20212;-55
2023/05/02 03:04:33;;;;;;;2.73;2.57;;;10.20;99.90;;;;;;4928833;29;20283;-55
2023/05/02 03:07:02;;;;;;;2.03;1.93;;;10.10;99.90;;;;;;4931398;29;20699;-56
2023/05/02 03:09:40;;;;;;;4.60;2.70;;;10.10;99.90;;;;;;4916590;29;20204;-55
2023/05/02 03:12:07;;;;;;;4.43;2.90;;;10.10;99.90;;;;;;4916281;29;20234;-55
2023/05/02 03:14:34;;;;;;;2.53;2.43;;;10.10;99.90;;;;;;4915876;29;20302;-55
2023/05/02 03:17:01;;;;;;;2.73;2.63;;;10.20;99.90;;;;;;4932084;29;20263;-55
2023/05/02 03:19:28;;;;;;;2.90;2.70;;;10.20;99.90;;;;;;4933524;29;20208;-55
2023/05/02 03:21:54;;;;;;;3.10;2.90;;;10.20;99.90;;;;;;4932327;29;20302;-56
2023/05/02 03:24:23;;;;;;;3.27;2.27;;;10.20;99.90;;;;;;4933647;29;20243;-55
2023/05/02 03:26:50;;;;;;;2.50;2.40;;;10.20;99.90;;;;;;4934865;29;20680;-55
2023/05/02 03:29:17;;;;;;;1.83;1.73;;;10.20;99.90;;;;;;4932721;29;20333;-55
2023/05/02 03:31:44;;;;;;;2.63;2.43;;;10.20;99.90;;;;;;4934639;29;20225;-55
2023/05/02 03:34:11;;;;;;;3.07;2.87;;;10.30;99.90;;;;;;4934499;29;20782;-55
2023/05/02 03:36:38;;;;;;;4.17;4.00;;;10.30;99.90;;;;;;4930989;29;20741;-55
2023/05/02 03:39:05;;;;;;;3.93;3.80;;;10.30;99.90;;;;;;4930390;29;20256;-55
2023/05/02 03:41:33;;;;;;;4.17;3.90;;;10.20;99.90;;;;;;4928742;29;20201;-55
2023/05/02 03:44:00;;;;;;;3.83;3.63;;;10.20;99.90;;;;;;4934216;29;20220;-55
2023/05/02 03:46:27;;;;;;;3.73;3.43;;;10.20;99.90;;;;;;4934412;29;20212;-55
2023/05/02 03:48:54;;;;;;;4.37;4.17;;;10.20;99.90;;;;;;4933043;29;20204;-55
2023/05/02 03:51:21;;;;;;;4.13;3.90;;;10.20;99.90;;;;;;4934309;29;20213;-55
2023/05/02 03:53:48;;;;;;;4.73;4.40;;;10.20;99.90;;;;;;4929420;29;20228;-55
2023/05/02 03:56:19;;;;;;;4.53;4.23;;;10.20;99.90;;;;;;4929330;29;20209;-54
2023/05/02 03:58:48;;;;;;;4.43;4.20;;;10.20;99.90;;;;;;4928038;29;20202;-55
2023/05/02 04:01:15;;;;;;;3.13;3.03;;;10.20;99.90;;;;;;4928761;29;20197;-55
2023/05/02 04:03:43;;;;;;;4.20;3.90;;;10.20;99.90;;;;;;4926380;29;20722;-55
2023/05/02 04:06:10;;;;;;;4.57;4.27;;;10.20;99.90;;;;;;4926197;29;20290;-56
2023/05/02 04:08:37;;;;;;;5.13;4.70;;;10.20;99.90;;;;;;4927870;29;20272;-55
2023/05/02 04:11:04;;;;;;;5.27;4.87;;;10.20;99.90;;;;;;4931724;29;20227;-55
2023/05/02 04:13:31;;;;;;;3.50;3.40;;;10.20;99.90;;;;;;4933640;29;20602;-55
2023/05/02 04:15:59;;;;;;;3.13;3.03;;;10.20;99.90;;;;;;4930133;29;20275;-55
2023/05/02 04:18:26;;;;;;;3.90;3.70;;;10.20;99.90;;;;;;4933198;29;20194;-55
2023/05/02 04:20:53;;;;;;;4.13;3.93;;;10.20;99.90;;;;;;4933655;29;20300;-55
2023/05/02 04:23:20;;;;;;;5.43;4.30;;;10.20;99.90;;;;;;4951592;23;20253;-55
2023/05/02 04:25:53;;;;;;;4.63;4.33;;;10.20;99.90;;;;;;4915115;29;20198;-53
2023/05/02 04:28:21;;;;;;;4.67;4.30;;;10.20;99.90;;;;;;4913847;29;20245;-53
2023/05/02 04:30:48;;;;;;;5.27;4.87;;;10.20;99.90;;;;;;4913492;29;20748;-53
2023/05/02 04:33:17;;;;;;;4.27;3.90;;;10.30;99.90;;;;;;4914451;29;20233;-52
2023/05/02 04:35:44;;;;;;;5.73;5.37;;;10.30;99.90;;;;;;4914135;29;20205;-53
2023/05/02 04:38:11;;;;;;;4.67;4.37;;;10.30;99.90;;;;;;4912781;29;20556;-53
2023/05/02 04:40:38;;;;;;;4.47;4.17;;;10.30;99.90;;;;;;4896641;29;20211;-53
2023/05/02 04:43:05;;;;;;;4.03;3.83;;;10.40;99.90;;;;;;4910368;29;20254;-53
2023/05/02 04:45:32;;;;;;;4.03;3.83;;;10.40;99.90;;;;;;4894836;29;20238;-52
2023/05/02 04:47:59;;;;;;;3.93;3.63;;;10.30;99.90;;;;;;4886323;29;20255;-53
2023/05/02 04:50:28;;;;;;;5.03;4.70;;;10.30;99.90;;;;;;4898806;29;20232;-53
2023/05/02 04:52:55;;;;;;;4.17;3.90;;;10.30;99.90;;;;;;4903668;29;20287;-53
2023/05/02 04:55:22;;;;;;;5.00;4.60;;;10.30;99.90;;;;;;4900415;29;20229;-53
2023/05/02 04:57:49;;;;;;;3.70;3.50;;;10.40;99.90;;;;;;4897214;29;20256;-53
2023/05/02 05:00:16;;;;;;;3.60;3.40;;;10.40;99.90;;;;;;4901694;29;20602;-53
2023/05/02 05:02:43;;;;;;;7.27;6.77;;;10.40;99.90;;;;;;4893006;29;20195;-52
2023/05/02 05:05:10;;;;;;;5.17;4.87;;;10.40;99.90;;;;;;4899627;29;20737;-53
2023/05/02 05:07:38;;;;;;;5.40;5.00;;;10.40;99.90;;;;;;4899937;29;20213;-53
2023/05/02 05:10:07;;;;;;;4.40;4.20;;;10.40;99.90;;;;;;4898432;29;20211;-53
2023/05/02 05:12:34;;;;;;;3.70;3.50;;;10.50;99.90;;;;;;4894596;29;20691;-53
2023/05/02 05:15:01;;;;;;;3.77;3.57;;;10.50;99.90;;;;;;4895798;29;20226;-53
2023/05/02 05:17:30;;;;;;;3.97;3.57;;;10.50;99.90;;;;;;4899629;29;20209;-53
2023/05/02 05:19:57;;;;;;;3.83;3.33;;;10.50;99.90;;;;;;4882616;29;20208;-53
2023/05/02 05:22:24;;;;;;;3.23;3.03;;;10.50;99.90;;;;;;4899349;29;20198;-53
2023/05/02 05:24:53;;;;;;;4.00;3.70;;;10.60;99.90;;;;;;4900459;29;20246;-54
2023/05/02 05:27:20;;;;;;;3.70;3.50;;;10.60;99.90;;;;;;4896973;29;20256;-53
2023/05/02 05:29:47;;;;;;;3.90;3.70;;;10.50;99.90;;;;;;4899486;29;20205;-52
2023/05/02 05:32:14;;;;;;;3.07;2.87;;;10.60;99.90;;;;;;4899710;29;20230;-52
2023/05/02 05:34:41;;;;;;;3.60;3.40;;;10.60;99.90;;;;;;4897885;29;20278;-52
2023/05/02 05:37:08;;;;;;;3.93;3.67;;;10.60;99.90;;;;;;4890533;29;20260;-52
2023/05/02 05:39:35;;;;;;;3.70;3.40;;;10.60;99.90;;;;;;4892585;29;20201;-52
2023/05/02 05:42:04;;;;;;;4.67;3.70;;;10.60;99.90;;;;;;4894062;29;20665;-53
2023/05/02 05:44:32;;;;;;;4.97;4.67;;;10.60;99.90;;;;;;4891389;29;20259;-53
2023/05/02 05:46:58;;;;;;;7.87;7.10;;;10.70;99.90;;;;;;4899472;29;20282;-53
2023/05/02 05:49:25;;;;;;;8.20;7.53;;;10.70;99.90;;;;;;4899379;29;20275;-53
2023/05/02 05:51:52;;;;;;;7.17;6.40;;;10.70;99.90;;;;;;4896558;29;20222;-52
2023/05/02 05:54:19;;;;;;;7.77;6.97;;;10.80;99.90;;;;;;4882822;29;20743;-53
2023/05/02 05:56:47;;;;;;;7.63;7.03;;;10.70;99.90;;;;;;4898877;29;20213;-53
2023/05/02 05:59:15;;;;;;;7.77;7.20;;;10.60;99.90;;;;;;4897547;29;20237;-52
2023/05/02 06:01:43;;;;;;;9.17;8.37;;;10.60;99.90;;;;;;4899195;29;20249;-52
2023/05/02 06:04:10;;;;;;;7.80;7.07;;;10.60;99.90;;;;;;4897360;29;20348;-53
2023/05/02 06:06:37;;;;;;;6.50;6.03;;;10.50;99.90;;;;;;4896663;29;20615;-53
2023/05/02 06:09:04;;;;;;;8.40;7.40;;;10.60;99.90;;;;;;4895189;29;20744;-52
2023/05/02 06:11:31;;;;;;;7.83;5.73;;;10.50;99.90;;;;;;4897745;29;20222;-53
2023/05/02 06:13:58;;;;;;;6.00;5.47;;;10.50;99.90;;;;;;4898862;29;20672;-52
2023/05/02 06:16:26;;;;;;;4.57;4.27;;;10.50;99.90;;;;;;4915221;29;20205;-52
2023/05/02 06:18:53;;;;;;;5.60;5.10;;;10.50;99.90;;;;;;4897652;29;20265;-53
2023/05/02 06:21:20;;;;;;;5.37;4.87;;;10.50;99.90;;;;;;4894182;29;20211;-52
2023/05/02 06:23:47;;;;;;;6.33;5.77;;;10.50;99.90;;;;;;4898274;29;20240;-52
2023/05/02 06:26:14;;;;;;;6.30;5.73;;;10.50;99.90;;;;;;4882459;29;20210;-53
2023/05/02 06:28:43;;;;;;;4.20;3.93;;;10.50;99.90;;;;;;4879422;29;20208;-53
2023/05/02 06:31:10;;;;;;;2.63;2.43;;;10.50;99.90;;;;;;4891621;29;20586;-53
2023/05/02 06:33:38;;;;;;;2.30;2.20;;;10.50;99.90;;;;;;4894792;29;20231;-52
2023/05/02 06:36:05;;;;;;;1.40;1.30;;;10.50;99.90;;;;;;4891664;29;20261;-53
2023/05/02 06:38:32;;;;;;;2.20;2.10;;;10.40;99.90;;;;;;4895690;29;20205;-52
2023/05/02 06:40:59;;;;;;;2.90;2.80;;;10.40;99.90;;;;;;4898412;29;20205;-52
2023/05/02 06:43:27;;;;;;;3.27;3.07;;;10.50;99.90;;;;;;4896499;29;20271;-54
2023/05/02 06:45:55;;;;;;;3.20;2.90;;;10.50;99.90;;;;;;4896910;29;20215;-58
2023/05/02 06:48:22;;;;;;;3.20;3.07;;;10.50;99.90;;;;;;4900539;29;20682;-59
2023/05/02 06:50:52;;;;;;;3.63;3.43;;;10.60;99.90;;;;;;4908771;29;20203;-50
2023/05/02 06:53:19;;;;;;;3.20;3.00;;;10.60;99.90;;;;;;4898886;29;20225;-58
2023/05/02 06:55:47;;;;;;;2.93;2.83;;;10.60;99.90;;;;;;4909401;29;20227;-59
2023/05/02 06:58:14;;;;;;;3.60;3.30;;;10.60;99.90;;;;;;4915617;29;20290;-58
2023/05/02 07:00:41;;;;;;;3.60;3.50;;;10.70;99.90;;;;;;4904973;29;20561;-59
2023/05/02 07:03:09;;;;;;;2.90;2.60;;;10.70;99.90;;;;;;4893575;29;20208;-59
2023/05/02 07:05:36;;;;;;;2.97;2.83;;;10.70;99.90;;;;;;4884987;29;20235;-59
2023/05/02 07:08:07;;;;;;;3.70;2.67;;;10.70;99.90;;;;;;4891653;29;20274;-60
2023/05/02 07:10:34;;;;;;;3.03;2.83;;;10.80;99.90;;;;;;4887150;29;20207;-59
2023/05/02 07:13:01;;;;;;;3.13;2.93;;;10.80;99.90;;;;;;4882743;29;20234;-60
2023/05/02 07:15:28;;;;;;;2.50;2.30;;;10.90;99.90;;;;;;4879279;29;20254;-60
2023/05/02 07:17:55;;;;;;;2.33;2.23;;;10.90;99.90;;;;;;4879049;29;20223;-60
2023/05/02 07:20:23;;;;;;;2.73;2.53;;;10.90;99.90;;;;;;4877343;29;20235;-59
2023/05/02 07:22:50;;;;;;;2.23;2.10;;;10.80;99.90;;;;;;4876586;29;20200;-59
2023/05/02 07:25:18;;;;;;;2.83;2.63;;;10.80;99.90;;;;;;4878794;29;20239;-60
2023/05/02 07:27:45;;;;;;;4.03;2.77;;;10.80;99.90;;;;;;4876309;29;20231;-61
2023/05/02 07:30:13;;;;;;;2.43;2.33;;;10.90;99.90;;;;;;4875559;29;20262;-57
2023/05/02 07:32:40;;;;;;;2.40;2.23;;;10.90;99.90;;;;;;4882970;29;20257;-58
2023/05/02 07:35:07;;;;;;;3.00;2.90;;;11.00;99.90;;;;;;4890029;29;20249;-59
2023/05/02 07:37:35;;;;;;;3.47;3.30;;;11.00;99.90;;;;;;4893405;29;20692;-58
2023/05/02 07:40:03;;;;;;;3.90;3.60;;;11.00;99.90;;;;;;4886014;29;20278;-59
2023/05/02 07:42:31;;;;;;;5.33;4.90;;;11.10;99.90;;;;;;4888299;29;20206;-59
2023/05/02 07:44:59;;;;;;;4.33;4.07;;;11.10;99.90;;;;;;4889994;29;20700;-51
2023/05/02 07:47:28;;;;;;;4.50;4.20;;;11.20;99.90;;;;;;4893806;29;20253;-51
2023/05/02 07:49:55;;;;;;;2.97;2.80;;;11.30;99.90;;;;;;4887755;29;20579;-56
2023/05/02 07:52:22;;;;;;;2.03;1.90;;;11.30;99.90;;;;;;4892195;29;20248;-58
2023/05/02 07:54:50;;;;;;;2.00;2.00;;;11.30;99.90;;;;;;4878102;29;20234;-58
2023/05/02 07:57:17;;;;;;;2.03;1.93;;;11.30;99.90;;;;;;4894561;29;20763;-59
2023/05/02 07:59:45;;;;;;;2.20;2.10;;;11.30;99.90;;;;;;4891771;29;20273;-59
2023/05/02 08:02:12;;;;;;;2.77;2.47;;;11.30;99.90;;;;;;4886660;29;20660;-58
2023/05/02 08:04:39;;;;;;;5.03;2.60;;;11.30;99.90;;;;;;4881471;29;20297;-58
2023/05/02 08:07:07;;;;;;;2.73;2.50;;;11.40;99.90;;;;;;4880445;29;20216;-60
2023/05/02 08:09:34;;;;;;;2.90;2.37;;;11.40;99.90;;;;;;4891617;29;20211;-58
2023/05/02 08:12:02;;;;;;;3.03;2.80;;;11.30;99.90;;;;;;4891261;29;20249;-60
2023/05/02 08:14:29;;;;;;;3.30;3.20;;;11.30;99.90;;;;;;4886054;29;20225;-61
2023/05/02 08:16:59;;;;;;;2.90;2.80;;;11.20;99.90;;;;;;4887246;29;20205;-60
2023/05/02 08:19:26;;;;;;;3.00;2.90;;;11.10;99.90;;;;;;4879758;29;20685;-60
2023/05/02 08:21:54;;;;;;;1.93;1.93;;;11.20;99.90;;;;;;4886325;29;20268;-61
2023/05/02 08:24:21;;;;;;;3.43;3.33;;;11.30;99.90;;;;;;4879437;29;20282;-61
2023/05/02 08:26:48;;;;;;;4.13;3.83;;;11.30;99.90;;;;;;4877285;29;20293;-61
2023/05/02 08:29:15;;;;;;;4.30;4.00;;;11.30;99.90;;;;;;4876030;29;20214;-61
2023/05/02 08:31:42;;;;;;;3.53;3.40;;;11.40;99.90;;;;;;4874556;29;20211;-61
2023/05/02 08:34:10;;;;;;;2.77;2.67;;;11.40;99.90;;;;;;4875850;29;20750;-59
2023/05/02 08:36:37;;;;;;;3.30;3.10;;;11.30;99.90;;;;;;4877274;29;20269;-60
2023/05/02 08:39:06;;;;;;;3.70;3.50;;;11.40;99.90;;;;;;4875929;29;20206;-60
2023/05/02 08:41:33;;;;;;;2.60;2.50;;;11.40;99.90;;;;;;4876238;29;20567;-57
2023/05/02 08:44:02;;;;;;;3.30;3.20;;;11.50;99.90;;;;;;4887636;29;20230;-58
2023/05/02 08:46:30;;;;;;;4.33;2.80;;;11.60;99.90;;;;;;4884641;29;20583;-58
2023/05/02 08:48:58;;;;;;;3.27;3.13;;;11.70;99.90;;;;;;4884157;29;20641;-58
2023/05/02 08:51:28;;;;;;;3.53;3.33;;;11.80;99.90;;;;;;4880606;29;20221;-63
2023/05/02 08:53:55;;;;;;;2.70;2.50;;;11.90;99.90;;;;;;4882789;29;20317;-64
2023/05/02 08:56:24;;;;;;;2.90;2.70;;;11.80;99.90;;;;;;4888330;29;20218;-65
2023/05/02 08:58:51;;;;;;;3.20;3.00;;;11.90;99.90;;;;;;4886428;29;20206;-64
2023/05/02 09:01:22;;;;;;;3.43;2.40;;;11.80;99.90;;;;;;4884823;29;20226;-64
2023/05/02 09:03:51;;;;;;;2.77;2.67;;;11.80;99.90;;;;;;4893115;29;20366;-58
2023/05/02 09:06:19;;;;;;;2.80;2.70;;;11.80;99.90;;;;;;4889962;29;20220;-59
2023/05/02 09:08:51;;;;;;;3.13;2.93;;;11.80;99.90;;;;;;4880178;29;20210;-60
2023/05/02 09:11:18;;;;;;;2.47;2.27;;;11.80;99.90;;;;;;4891533;29;20231;-59
2023/05/02 09:13:47;;;;;;;2.93;2.83;;;11.80;99.90;;;;;;4890729;29;20271;-60
2023/05/02 09:16:16;;;;;;;3.27;3.07;;;11.70;99.90;;;;;;4894157;29;20746;-59
2023/05/02 09:18:45;;;;;;;3.30;3.20;;;11.70;99.90;;;;;;4880497;29;20741;-60
2023/05/02 09:21:15;;;;;;;3.43;3.23;;;11.80;99.90;;;;;;4887249;29;20208;-61
2023/05/02 09:23:44;;;;;;;4.13;3.83;;;11.90;99.90;;;;;;4889521;29;20234;-59
2023/05/02 09:26:17;;;;;;;4.20;3.57;;;11.90;99.90;;;;;;4876990;29;20287;-59
2023/05/02 09:28:46;;;;;;;3.57;3.47;;;11.90;99.90;;;;;;4873945;29;20211;-58
2023/05/02 09:31:15;;;;;;;3.83;3.53;;;11.90;99.90;;;;;;4879737;29;20701;-59
2023/05/02 09:33:43;;;;;;;3.47;3.27;;;11.90;99.90;;;;;;4894720;29;20321;-61
2023/05/02 09:36:13;;;;;;;4.27;4.07;;;12.00;99.90;;;;;;4880829;29;20282;-58
2023/05/02 09:38:40;;;;;;;4.17;3.97;;;12.10;99.90;;;;;;4894841;29;20262;-60
2023/05/02 09:41:07;;;;;;;4.90;4.60;;;12.10;99.90;;;;;;4899343;29;20205;-61
2023/05/02 09:43:36;;;;;;;4.50;4.00;;;12.20;99.90;;;;;;4898254;29;20218;-59
2023/05/02 09:46:04;;;;;;;4.23;3.93;;;12.30;99.90;;;;;;4898333;29;20277;-58
2023/05/02 09:48:33;;;;;;;3.47;3.27;;;12.40;99.90;;;;;;4884753;29;20208;-58
2023/05/02 09:51:00;;;;;;;3.57;3.27;;;12.50;99.90;;;;;;4893890;29;20679;-59
2023/05/02 09:53:28;;;;;;;3.50;2.83;;;12.60;99.90;;;;;;4890762;29;20289;-61
2023/05/02 09:56:02;;;;;;;3.80;3.50;;;12.60;99.90;;;;;;4887525;29;20213;-58
2023/05/02 09:58:30;;;;;;;3.27;3.07;;;12.80;99.90;;;;;;4889918;29;20207;-58
2023/05/02 10:00:59;;;;;;;3.23;3.03;;;12.80;99.90;;;;;;4896653;29;20205;-58
2023/05/02 10:03:27;;;;;;;3.03;2.93;;;13.10;99.90;;;;;;4897342;29;20221;-58
2023/05/02 10:05:55;;;;;;;3.17;3.00;;;13.20;99.90;;;;;;4894530;29;20262;-58
2023/05/02 10:08:24;;;;;;;2.47;2.37;;;13.40;99.90;;;;;;4888323;29;20490;-58
2023/05/02 10:10:54;;;;;;;2.67;2.57;;;13.60;99.90;;;;;;4883126;29;20735;-59
2023/05/02 10:13:23;;;;;;;2.30;2.20;;;13.80;99.90;;;;;;4879079;29;20307;-59
2023/05/02 10:15:58;;;;;;;1.87;1.87;;;13.90;99.90;;;;;;4876729;29;20208;-59
2023/05/02 10:18:32;;;;;;;2.80;2.70;;;14.00;99.90;;;;;;4886800;29;20270;-52
2023/05/02 10:21:03;;;;;;;2.30;2.20;;;14.20;99.90;;;;;;4886829;29;20212;-52
2023/05/02 10:23:31;;;;;;;2.50;2.40;;;14.40;99.90;;;;;;4878692;29;20254;-52
2023/05/02 10:25:59;;;;;;;2.30;2.20;;;14.50;99.90;;;;;;4884116;29;20231;-52
2023/05/02 10:28:27;;;;;;;3.40;2.63;;;14.80;99.90;;;;;;4883224;29;20666;-52
2023/05/02 10:30:54;;;;;;;2.80;2.70;;;14.90;99.90;;;;;;4879398;29;20207;-52
2023/05/02 10:33:23;;;;;;;2.50;2.30;;;14.90;99.90;;;;;;4878892;29;20313;-52
2023/05/02 10:35:51;;;;;;;3.13;3.03;;;15.00;99.90;;;;;;4881990;29;20247;-52
2023/05/02 10:38:20;;;;;;;3.20;3.10;;;15.30;99.90;;;;;;4882445;29;20208;-52
2023/05/02 10:40:55;;;;;;;3.70;3.60;;;15.60;99.90;;;;;;4879850;29;20895;-53
2023/05/02 10:43:25;;;;;;;4.10;3.87;;;15.80;99.90;;;;;;4876796;29;20208;-53
2023/05/02 10:45:53;;;;;;;5.13;4.87;;;16.10;99.90;;;;;;4879052;29;20274;-53
2023/05/02 10:48:22;;;;;;;4.70;4.40;;;15.90;99.90;;;;;;4879515;29;20216;-53
2023/05/02 10:50:51;;;;;;;5.85;5.45;;;16.20;99.90;;;;;;4876194;29;20479;-59
2023/05/02 10:53:30;;;;;;;4.47;4.27;;;16.50;99.90;;;;;;4879225;29;20238;-57
2023/05/02 10:56:15;;;;;;;5.30;5.00;;;16.70;99.90;;;;;;4927790;23;20226;-73
2023/05/02 10:58:43;;;;;;;5.87;5.47;;;17.10;99.90;;;;;;4906400;29;20638;-75
2023/05/02 11:01:35;;;;;;;6.70;6.10;;;17.40;99.90;;;;;;4906757;29;20282;-76
2023/05/02 11:04:03;;;;;;;6.90;6.37;;;17.40;99.90;;;;;;4908387;29;20748;-74
2023/05/02 11:06:33;;;;;;;6.23;5.33;;;17.20;99.90;;;;;;4896967;29;20206;-73
2023/05/02 11:09:31;;;;;;;6.83;6.23;;;17.20;99.90;;;;;;4898559;29;20203;-72
2023/05/02 11:12:00;;;;;;;5.90;5.50;;;17.30;99.90;;;;;;4891175;29;20213;-67
2023/05/02 11:14:46;;;;;;;6.87;6.37;;;17.70;99.90;;;;;;4899795;29;20235;-65
2023/05/02 11:17:13;;;;;;;6.13;5.77;;;17.80;99.90;;;;;;4902791;29;20202;-66
2023/05/02 11:20:27;;;;;;;6.40;6.00;;;18.00;99.90;;;;;;4915479;29;20199;-58
2023/05/02 11:22:58;;;;;;;5.67;5.27;;;17.80;99.90;;;;;;4902851;29;20202;-59
2023/05/02 11:25:36;;;;;;;6.83;6.30;;;17.50;99.90;;;;;;4906734;29;20230;-60
2023/05/02 11:28:06;;;;;;;7.37;6.87;;;17.20;99.90;;;;;;4902055;29;20210;-60
2023/05/02 11:30:46;;;;;;;5.50;5.20;;;16.90;99.90;;;;;;4907713;29;20261;-61
2023/05/02 11:33:18;;;;;;;8.03;7.37;;;17.00;99.90;;;;;;4909758;29;20571;-59
2023/05/02 11:35:49;;;;;;;6.30;5.83;;;17.00;99.90;;;;;;4911379;29;20222;-59
2023/05/02 11:38:21;;;;;;;7.90;6.63;;;16.90;99.90;;;;;;4911001;29;20206;-57
2023/05/02 11:40:57;;;;;;;6.27;5.87;;;17.00;99.90;;;;;;4914269;29;20259;-58
2023/05/02 11:43:25;;;;;;;6.57;5.97;;;17.40;99.90;;;;;;4914329;29;20252;-57
2023/05/02 11:45:53;;;;;;;6.60;6.20;;;17.60;99.90;;;;;;4914221;29;20257;-58
2023/05/02 11:48:22;;;;;;;5.97;5.50;;;17.80;99.90;;;;;;4913969;29;20278;-57
2023/05/02 11:50:50;;;;;;;6.53;6.13;;;18.20;99.90;;;;;;4911015;29;20259;-58
2023/05/02 11:53:22;;;;;;;7.10;6.47;;;18.00;99.90;;;;;;4913909;29;20218;-59
2023/05/02 11:55:50;;;;;;;7.30;6.80;;;18.20;99.90;;;;;;4914105;29;20317;-58
2023/05/02 11:58:19;;;;;;;6.37;5.77;;;18.20;99.90;;;;;;4913969;29;20273;-59
2023/05/02 12:00:46;;;;;;;6.67;6.10;;;18.30;99.90;;;;;;4913860;29;20195;-58
2023/05/02 12:03:25;;;;;;;6.43;6.03;;;18.30;99.90;;;;;;4914094;29;20198;-59
2023/05/02 12:05:52;;;;;;;5.87;5.47;;;18.20;99.90;;;;;;4911716;29;20704;-58
2023/05/02 12:08:25;;;;;;;6.17;5.80;;;18.10;99.90;;;;;;4908482;29;20241;-57
2023/05/02 12:10:54;;;;;;;5.40;5.00;;;18.00;99.90;;;;;;4913867;29;20214;-58
2023/05/02 12:13:23;;;;;;;6.07;5.77;;;18.00;99.90;;;;;;4913496;29;20701;-58
2023/05/02 12:15:52;;;;;;;6.17;5.77;;;17.90;99.90;;;;;;4913816;29;20230;-59
2023/05/02 12:18:22;;;;;;;5.40;5.00;;;18.00;99.90;;;;;;4913770;29;20246;-58
2023/05/02 12:20:50;;;;;;;6.03;5.63;;;18.10;99.90;;;;;;4913972;29;20235;-58
2023/05/02 12:23:17;;;;;;;5.60;5.13;;;18.00;99.90;;;;;;4910765;29;20214;-57
2023/05/02 12:25:47;;;;;;;5.93;5.57;;;17.70;99.90;;;;;;4903276;29;20226;-58
2023/05/02 12:28:14;;;;;;;5.67;5.27;;;17.60;99.90;;;;;;4894658;29;20207;-59
2023/05/02 12:30:41;;;;;;;5.47;5.10;;;17.70;99.90;;;;;;4897942;29;20229;-59
2023/05/02 12:33:09;;;;;;;5.20;4.90;;;17.60;99.90;;;;;;4893965;29;20243;-58
2023/05/02 12:35:36;;;;;;;5.50;5.03;;;17.80;99.90;;;;;;4894460;29;20310;-58
2023/05/02 12:38:11;;;;;;;6.17;5.67;;;17.90;99.90;;;;;;4906113;29;20738;-57
2023/05/02 12:40:39;;;;;;;6.77;6.33;;;17.80;99.90;;;;;;4903423;29;20592;-59
2023/05/02 12:43:09;;;;;;;7.40;6.73;;;18.00;99.90;;;;;;4894802;29;20222;-58
2023/05/02 12:45:37;;;;;;;7.63;6.93;;;18.00;99.90;;;;;;4898207;29;20273;-59
2023/05/02 12:48:22;;;;;;;8.10;6.27;;;18.00;99.90;;;;;;4903748;29;20202;-58
2023/05/02 12:50:49;;;;;;;6.30;5.80;;;17.80;99.90;;;;;;4900327;29;20234;-58
2023/05/02 12:53:16;;;;;;;9.00;8.20;;;17.60;99.90;;;;;;4894348;29;20231;-57
2023/05/02 12:55:43;;;;;;;7.10;6.50;;;17.20;99.90;;;;;;4892802;29;20233;-58
2023/05/02 12:58:13;;;;;;;6.93;6.53;;;17.20;99.90;;;;;;4896417;29;20226;-58